VV646B KGSB-KFFA
Flight info
| Callsign | VV646B |
|---|---|
| Flight time | N/A |
| Altitude | VFR |
| Route | |
| Aircraft | H60/M-DOV/C |
Departure
| Time | N/A |
|---|---|
| Airport | Seymour Johnson Air Force Base (KGSB) |
Arrival
| Time | 2026-05-07 01:32 |
|---|---|
| Airport | First Flight Airport (KFFA) |
| Time | Latitude | Longitude | Altitude | Speed | Heading |
|---|---|---|---|---|---|
| 2026-05-07 01:32 | 36.01389 | -75.67198 | 18 ft | 0 kts | 14° |
| 2026-05-07 01:36 | 36.01405 | -75.67195 | 35 ft | 16 kts | 22° |
| 2026-05-07 01:36 | 36.01465 | -75.67242 | 37 ft | 4 kts | 114° |
| 2026-05-07 01:36 | 36.01383 | -75.67133 | 239 ft | 34 kts | 216° |
| 2026-05-07 01:37 | 36.01368 | -75.67349 | 123 ft | 62 kts | 16° |
| 2026-05-07 01:37 | 36.01683 | -75.67098 | 112 ft | 22 kts | 223° |
| 2026-05-07 01:37 | 36.01766 | -75.67209 | 89 ft | 32 kts | 169° |
| 2026-05-07 01:37 | 36.01497 | -75.67188 | 27 ft | 27 kts | 179° |
| 2026-05-07 01:38 | 36.01460 | -75.67190 | 20 ft | 3 kts | 70° |
| 2026-05-07 01:38 | 36.01472 | -75.67164 | 300 ft | 42 kts | 0° |
| 2026-05-07 01:38 | 36.01971 | -75.67030 | 237 ft | 75 kts | 74° |
| 2026-05-07 01:38 | 36.02060 | -75.66888 | 155 ft | 52 kts | 194° |
| 2026-05-07 01:39 | 36.01622 | -75.67063 | 128 ft | 64 kts | 202° |
| 2026-05-07 01:39 | 36.01391 | -75.67214 | 33 ft | 10 kts | 5° |
| 2026-05-07 01:39 | 36.01387 | -75.67199 | 21 ft | 0 kts | 12° |
| 2026-05-07 01:40 | 36.01411 | -75.67180 | 27 ft | 18 kts | 22° |
| 2026-05-07 01:40 | 36.01438 | -75.67163 | 24 ft | 0 kts | 15° |
| 2026-05-07 01:41 | 36.01437 | -75.67160 | 23 ft | 0 kts | 292° |
| 2026-05-07 01:41 | 36.01456 | -75.67202 | 31 ft | 2 kts | 126° |
| 2026-05-07 01:41 | 36.01446 | -75.67188 | 22 ft | 0 kts | 122° |
| 2026-05-07 01:42 | 36.01443 | -75.67184 | 23 ft | 0 kts | 12° |
| 2026-05-07 01:42 | 36.01446 | -75.67195 | 21 ft | 0 kts | 114° |
| 2026-05-07 01:47 | 36.01455 | -75.67199 | 24 ft | 9 kts | 320° |
| 2026-05-07 01:47 | 36.01669 | -75.67183 | 36 ft | 56 kts | 13° |
| 2026-05-07 01:47 | 36.02197 | -75.67026 | 214 ft | 112 kts | 19° |
| 2026-05-07 01:47 | 36.03110 | -75.66770 | 313 ft | 143 kts | 18° |
| 2026-05-07 01:48 | 36.03744 | -75.66325 | 867 ft | 49 kts | 278° |
| 2026-05-07 01:48 | 36.04068 | -75.66830 | 756 ft | 121 kts | 303° |
| 2026-05-07 01:48 | 36.04830 | -75.67474 | 732 ft | 132 kts | 335° |
| 2026-05-07 01:48 | 36.05572 | -75.67795 | 841 ft | 96 kts | 343° |
| 2026-05-07 01:49 | 36.06321 | -75.67931 | 677 ft | 120 kts | 7° |
| 2026-05-07 01:49 | 36.06815 | -75.68005 | 465 ft | 47 kts | 269° |
| 2026-05-07 01:49 | 36.07157 | -75.68083 | 925 ft | 76 kts | 346° |
| 2026-05-07 01:49 | 36.07675 | -75.68257 | 2009 ft | 81 kts | 335° |
| 2026-05-07 01:50 | 36.08252 | -75.68791 | 1445 ft | 139 kts | 309° |
| 2026-05-07 01:50 | 36.08768 | -75.69807 | 478 ft | 133 kts | 300° |
| 2026-05-07 01:50 | 36.09327 | -75.70612 | 154 ft | 119 kts | 329° |
| 2026-05-07 01:50 | 36.09954 | -75.71006 | 41 ft | 90 kts | 335° |
| 2026-05-07 01:51 | 36.10442 | -75.71281 | 35 ft | 62 kts | 338° |
| 2026-05-07 01:51 | 36.10626 | -75.71371 | 6 ft | 0 kts | 352° |
| 2026-05-07 01:51 | 36.10456 | -75.71356 | 127 ft | 68 kts | 159° |
| 2026-05-07 01:51 | 36.09697 | -75.71046 | 771 ft | 144 kts | 165° |
| 2026-05-07 01:52 | 36.08646 | -75.70616 | 751 ft | 168 kts | 163° |
| 2026-05-07 01:52 | 36.07501 | -75.70156 | 599 ft | 176 kts | 163° |
| 2026-05-07 01:52 | 36.06298 | -75.69628 | 648 ft | 188 kts | 162° |
| 2026-05-07 01:52 | 36.05052 | -75.69069 | 674 ft | 193 kts | 162° |
| 2026-05-07 01:53 | 36.03899 | -75.68260 | 470 ft | 188 kts | 149° |
| 2026-05-07 01:53 | 36.02862 | -75.67390 | 216 ft | 171 kts | 149° |
| 2026-05-07 01:53 | 36.01837 | -75.67131 | 42 ft | 145 kts | 196° |
| 2026-05-07 01:53 | 36.00891 | -75.67268 | 484 ft | 59 kts | 270° |
| 2026-05-07 01:54 | 36.01018 | -75.67358 | 328 ft | 51 kts | 4° |
| 2026-05-07 01:54 | 36.01373 | -75.67284 | 67 ft | 34 kts | 8° |
| 2026-05-07 01:54 | 36.01427 | -75.67245 | 19 ft | 0 kts | 15° |
| 2026-05-07 01:55 | 36.01501 | -75.67242 | 72 ft | 27 kts | 188° |
| 2026-05-07 01:55 | 36.01562 | -75.67227 | 19 ft | 0 kts | 200° |
| 2026-05-07 01:55 | 36.01546 | -75.67229 | 28 ft | 7 kts | 197° |
| 2026-05-07 01:56 | 36.01514 | -75.67237 | 49 ft | 3 kts | 11° |
| 2026-05-07 01:56 | 36.01889 | -75.67128 | 54 ft | 88 kts | 19° |
| 2026-05-07 01:56 | 36.02490 | -75.67006 | 224 ft | 96 kts | 352° |
| 2026-05-07 01:56 | 36.03081 | -75.66960 | 509 ft | 81 kts | 343° |
| 2026-05-07 01:57 | 36.03880 | -75.67150 | 257 ft | 144 kts | 345° |
| 2026-05-07 01:57 | 36.04796 | -75.67649 | 38 ft | 146 kts | 330° |
| 2026-05-07 01:57 | 36.05373 | -75.67887 | 4 ft | 57 kts | 213° |
| 2026-05-07 01:57 | 36.05430 | -75.67712 | 664 ft | 21 kts | 316° |
| 2026-05-07 01:58 | 36.05707 | -75.68043 | 1008 ft | 96 kts | 316° |
| 2026-05-07 01:58 | 36.06306 | -75.68705 | 376 ft | 129 kts | 325° |
| 2026-05-07 01:58 | 36.07044 | -75.69243 | 120 ft | 120 kts | 334° |
| 2026-05-07 01:58 | 36.07781 | -75.69698 | 201 ft | 111 kts | 335° |
| 2026-05-07 01:59 | 36.08301 | -75.70110 | 290 ft | 76 kts | 306° |
| 2026-05-07 01:59 | 36.08684 | -75.70226 | 205 ft | 101 kts | 332° |
| 2026-05-07 01:59 | 36.09348 | -75.70598 | 53 ft | 93 kts | 264° |
| 2026-05-07 01:59 | 36.09991 | -75.70868 | 70 ft | 64 kts | 212° |
| 2026-05-07 02:00 | 36.10206 | -75.70976 | 114 ft | 39 kts | 208° |
| 2026-05-07 02:00 | 36.10371 | -75.71090 | 107 ft | 19 kts | 242° |
| 2026-05-07 02:00 | 36.10676 | -75.71403 | 147 ft | 91 kts | 332° |
| 2026-05-07 02:00 | 36.11363 | -75.71745 | 218 ft | 107 kts | 340° |
| 2026-05-07 02:01 | 36.11877 | -75.72173 | 423 ft | 78 kts | 282° |
| 2026-05-07 02:01 | 36.11800 | -75.72913 | 595 ft | 107 kts | 233° |
| 2026-05-07 02:01 | 36.11414 | -75.73775 | 463 ft | 111 kts | 233° |
| 2026-05-07 02:01 | 36.11014 | -75.74527 | 433 ft | 109 kts | 224° |
| 2026-05-07 02:02 | 36.10519 | -75.75223 | 426 ft | 105 kts | 217° |
| 2026-05-07 02:02 | 36.10010 | -75.75862 | 350 ft | 98 kts | 220° |
| 2026-05-07 02:02 | 36.09722 | -75.76571 | 431 ft | 79 kts | 201° |
| 2026-05-07 02:02 | 36.09390 | -75.77259 | 193 ft | 98 kts | 243° |
| 2026-05-07 02:03 | 36.09076 | -75.77968 | 174 ft | 93 kts | 243° |
| 2026-05-07 02:03 | 36.08729 | -75.78704 | 234 ft | 110 kts | 240° |
| 2026-05-07 02:03 | 36.08395 | -75.79379 | 384 ft | 87 kts | 241° |
| 2026-05-07 02:03 | 36.08009 | -75.80021 | 257 ft | 84 kts | 213° |
| 2026-05-07 02:04 | 36.08077 | -75.80448 | 513 ft | 41 kts | 118° |
| 2026-05-07 02:04 | 36.08222 | -75.81112 | 295 ft | 118 kts | 359° |
| 2026-05-07 02:04 | 36.08248 | -75.81742 | 624 ft | 38 kts | 99° |
| 2026-05-07 02:04 | 36.08255 | -75.81866 | 650 ft | 11 kts | 111° |
| 2026-05-07 02:05 | 36.08347 | -75.81705 | 489 ft | 32 kts | 107° |
| 2026-05-07 02:05 | 36.08402 | -75.81320 | 440 ft | 55 kts | 105° |
| 2026-05-07 02:05 | 36.08400 | -75.80877 | 394 ft | 43 kts | 113° |
| 2026-05-07 02:05 | 36.08382 | -75.80614 | 352 ft | 21 kts | 131° |
| 2026-05-07 02:06 | 36.08357 | -75.80501 | 265 ft | 5 kts | 134° |
| 2026-05-07 02:06 | 36.08361 | -75.80511 | 277 ft | 5 kts | 132° |
| 2026-05-07 02:06 | 36.08253 | -75.80532 | 594 ft | 29 kts | 116° |
| 2026-05-07 02:06 | 36.08092 | -75.80260 | 336 ft | 48 kts | 101° |
| 2026-05-07 02:07 | 36.07899 | -75.80010 | 55 ft | 12 kts | 124° |
| 2026-05-07 02:07 | 36.07835 | -75.79976 | 38 ft | 43 kts | 144° |
| 2026-05-07 02:07 | 36.07587 | -75.79520 | 249 ft | 21 kts | 314° |
| 2026-05-07 02:08 | 36.07769 | -75.79867 | 68 ft | 93 kts | 309° |
| 2026-05-07 02:08 | 36.07949 | -75.79918 | 93 ft | 82 kts | 183° |
| 2026-05-07 02:08 | 36.07839 | -75.79970 | 52 ft | 30 kts | 296° |
| 2026-05-07 02:08 | 36.07906 | -75.80034 | 54 ft | 24 kts | 133° |
| 2026-05-07 02:09 | 36.07592 | -75.79559 | 49 ft | 107 kts | 124° |
| 2026-05-07 02:09 | 36.07227 | -75.78693 | 492 ft | 116 kts | 92° |
| 2026-05-07 02:09 | 36.06831 | -75.77699 | 846 ft | 150 kts | 115° |
| 2026-05-07 02:09 | 36.06200 | -75.76578 | 740 ft | 167 kts | 117° |
| 2026-05-07 02:10 | 36.05543 | -75.75355 | 783 ft | 173 kts | 123° |
| 2026-05-07 02:10 | 36.04887 | -75.74099 | 698 ft | 174 kts | 123° |
| 2026-05-07 02:10 | 36.04228 | -75.72826 | 647 ft | 178 kts | 124° |
| 2026-05-07 02:10 | 36.03564 | -75.71531 | 569 ft | 184 kts | 121° |
| 2026-05-07 02:11 | 36.02907 | -75.70203 | 396 ft | 170 kts | 119° |
| 2026-05-07 02:11 | 36.02494 | -75.68916 | 216 ft | 151 kts | 97° |
| 2026-05-07 02:11 | 36.02311 | -75.67847 | 106 ft | 104 kts | 103° |
| 2026-05-07 02:11 | 36.02072 | -75.67223 | 129 ft | 62 kts | 149° |
| 2026-05-07 02:12 | 36.01745 | -75.67162 | 69 ft | 35 kts | 200° |
| 2026-05-07 02:12 | 36.01523 | -75.67195 | 47 ft | 31 kts | 175° |
| 2026-05-07 02:12 | 36.01413 | -75.67202 | 37 ft | 7 kts | 35° |
| 2026-05-07 02:12 | 36.01411 | -75.67190 | 23 ft | 0 kts | 14° |